createdAt,value
2019-01-23T00:01:56.209Z,46.42
2019-01-23T00:06:01.269Z,47.73
2019-01-23T00:10:06.980Z,48.20
2019-01-23T00:14:12.047Z,48.38
2019-01-23T00:18:17.189Z,48.05
2019-01-23T00:22:22.255Z,47.90
2019-01-23T00:26:27.376Z,46.50
2019-01-23T00:30:32.453Z,47.00
2019-01-23T00:34:37.555Z,46.37
2019-01-23T00:38:42.628Z,48.40
2019-01-23T00:42:47.738Z,44.83
2019-01-23T00:46:52.809Z,46.53
2019-01-23T00:50:57.923Z,46.25
2019-01-23T00:55:03.062Z,40.60
2019-01-23T00:59:08.152Z,47.53
2019-01-23T01:03:13.298Z,47.33
2019-01-23T01:07:18.482Z,50.88
2019-01-23T01:11:23.583Z,45.75
2019-01-23T01:15:28.632Z,46.20
2019-01-23T01:19:33.740Z,47.25
2019-01-23T01:23:38.813Z,46.30
2019-01-23T01:27:43.944Z,48.55
2019-01-23T01:31:49.020Z,49.15
2019-01-23T01:35:54.114Z,50.73
2019-01-23T01:39:59.229Z,49.40
2019-01-23T01:44:04.313Z,46.15
2019-01-23T01:48:09.426Z,46.73
2019-01-23T01:52:14.503Z,46.13
2019-01-23T01:56:19.602Z,45.17
2019-01-23T02:00:24.898Z,50.80
2019-01-23T02:04:30.008Z,46.28
2019-01-23T02:08:35.131Z,48.23
2019-01-23T02:12:40.195Z,46.25
2019-01-23T02:16:45.313Z,50.70
2019-01-23T02:20:50.400Z,50.35
2019-01-23T02:24:55.531Z,48.58
2019-01-23T02:29:00.645Z,50.80
2019-01-23T02:33:05.717Z,49.27
2019-01-23T02:37:10.852Z,47.65
2019-01-23T02:41:15.937Z,45.52
2019-01-23T02:45:21.076Z,46.90
2019-01-23T02:49:26.168Z,49.85
2019-01-23T02:53:31.293Z,53.48
2019-01-23T02:57:36.388Z,52.83
2019-01-23T03:01:41.479Z,51.75
2019-01-23T03:05:46.621Z,51.88
2019-01-23T03:09:51.705Z,47.53
2019-01-23T03:13:56.809Z,44.27
2019-01-23T03:18:01.885Z,47.23
2019-01-23T03:22:07.021Z,47.90
2019-01-23T03:26:12.141Z,47.83
2019-01-23T03:30:19.047Z,44.70
2019-01-23T03:34:24.139Z,46.37
2019-01-23T03:38:29.228Z,49.05
2019-01-23T03:42:34.356Z,48.23
2019-01-23T03:46:39.432Z,46.23
2019-01-23T03:50:44.554Z,49.55
2019-01-23T03:54:49.739Z,45.48
2019-01-23T03:58:54.827Z,47.08
2019-01-23T04:02:59.940Z,49.80
2019-01-23T04:07:05.007Z,49.95
2019-01-23T04:11:10.105Z,47.45
2019-01-23T04:15:16.381Z,46.80
2019-01-23T04:19:21.483Z,46.18
2019-01-23T04:23:26.616Z,47.13
2019-01-23T04:27:31.715Z,49.08
2019-01-23T04:31:36.807Z,48.73
2019-01-23T04:35:41.939Z,47.60
2019-01-23T04:39:47.022Z,50.20
2019-01-23T04:43:52.126Z,51.13
2019-01-23T04:47:57.268Z,50.33
2019-01-23T04:52:03.920Z,52.03
2019-01-23T04:56:09.021Z,53.95
2019-01-23T05:00:15.718Z,57.90
2019-01-23T05:04:20.794Z,54.58
2019-01-23T05:08:25.909Z,53.65
2019-01-23T05:12:30.968Z,55.98
2019-01-23T05:16:36.084Z,55.65
2019-01-23T05:20:41.200Z,56.53
2019-01-23T05:24:46.307Z,54.75
2019-01-23T05:28:51.424Z,56.95
2019-01-23T05:32:56.499Z,59.63
2019-01-23T05:37:01.626Z,62.03
2019-01-23T05:41:06.691Z,63.05
2019-01-23T05:45:13.593Z,66.65
2019-01-23T05:49:18.711Z,66.80
2019-01-23T05:53:23.791Z,65.67
2019-01-23T05:57:28.898Z,70.65
2019-01-23T06:01:33.976Z,70.85
2019-01-23T06:05:39.079Z,70.55
2019-01-23T06:09:44.161Z,70.80
2019-01-23T06:13:49.251Z,77.05
2019-01-23T06:17:54.308Z,76.25
2019-01-23T06:21:59.421Z,73.70
2019-01-23T06:26:04.494Z,76.72
2019-01-23T06:30:15.877Z,80.05
2019-01-23T06:34:21.130Z,82.75
2019-01-23T06:38:26.166Z,82.42
2019-01-23T06:42:31.262Z,81.82
2019-01-23T06:46:36.367Z,82.02
2019-01-23T06:50:41.432Z,87.37
2019-01-23T06:54:46.575Z,89.50
2019-01-23T06:58:51.648Z,92.85
2019-01-23T07:02:56.676Z,90.87
2019-01-23T07:07:01.760Z,94.65
2019-01-23T07:11:06.856Z,96.45
2019-01-23T07:15:16.050Z,92.95
2019-01-23T07:19:21.141Z,99.13
2019-01-23T07:23:26.261Z,97.82
2019-01-23T07:27:31.327Z,98.22
2019-01-23T07:31:36.441Z,103.35
2019-01-23T07:35:41.528Z,105.43
2019-01-23T07:39:46.737Z,103.32
2019-01-23T07:43:51.796Z,99.17
2019-01-23T07:47:56.877Z,101.00
2019-01-23T07:52:01.987Z,96.10
2019-01-23T07:56:07.109Z,96.08
2019-01-23T08:00:21.341Z,92.25
2019-01-23T08:04:26.452Z,93.67
2019-01-23T08:08:31.576Z,92.75
2019-01-23T08:12:36.655Z,95.35
2019-01-23T08:16:41.849Z,93.75
2019-01-23T08:20:46.972Z,97.65
2019-01-23T08:24:52.084Z,91.20
2019-01-23T08:28:57.188Z,88.90
2019-01-23T08:33:02.321Z,91.37
2019-01-23T08:37:07.390Z,91.65
2019-01-23T08:41:12.515Z,91.22
2019-01-23T08:45:23.615Z,97.22
2019-01-23T08:49:29.218Z,90.47
2019-01-23T08:53:35.194Z,87.30
2019-01-23T08:57:40.288Z,85.50
2019-01-23T09:01:45.399Z,85.97
2019-01-23T09:05:50.482Z,87.25
2019-01-23T09:09:55.600Z,86.15
2019-01-23T09:14:00.683Z,83.78
2019-01-23T09:18:07.062Z,92.35
2019-01-23T09:22:12.409Z,88.58
2019-01-23T09:26:17.492Z,88.58
2019-01-23T09:30:37.464Z,91.05
2019-01-23T09:34:48.478Z,94.55
2019-01-23T09:38:59.621Z,92.02
2019-01-23T09:43:10.765Z,88.60
2019-01-23T09:47:31.328Z,85.97
2019-01-23T09:51:59.191Z,83.97
2019-01-23T09:56:04.271Z,87.65
2019-01-23T10:00:21.435Z,87.62
2019-01-23T10:04:26.528Z,83.33
2019-01-23T10:08:31.640Z,82.80
2019-01-23T10:12:36.756Z,82.00
2019-01-23T10:16:41.858Z,84.67
2019-01-23T10:20:46.972Z,81.00
2019-01-23T10:24:52.069Z,78.52
2019-01-23T10:28:57.274Z,79.47
2019-01-23T10:33:02.355Z,76.82
2019-01-23T10:37:07.484Z,75.47
2019-01-23T10:41:12.707Z,77.55
2019-01-23T10:45:17.802Z,77.85
2019-01-23T10:49:23.127Z,76.60
2019-01-23T10:53:28.207Z,72.17
2019-01-23T10:57:33.404Z,71.70
2019-01-23T11:01:38.711Z,68.40
2019-01-23T11:05:43.995Z,64.32
2019-01-23T11:09:49.078Z,68.02
2019-01-23T11:13:54.243Z,64.65
2019-01-23T11:17:59.406Z,68.28
2019-01-23T11:22:04.557Z,61.77
2019-01-23T11:26:09.627Z,62.60
2019-01-23T11:30:25.845Z,59.23
2019-01-23T11:34:30.936Z,58.48
2019-01-23T11:38:36.024Z,61.30
2019-01-23T11:42:41.109Z,61.18
2019-01-23T11:46:46.334Z,53.58
2019-01-23T11:50:51.419Z,57.33
2019-01-23T11:54:56.559Z,56.92
2019-01-23T11:59:01.633Z,58.78
2019-01-23T12:03:06.943Z,58.02
2019-01-23T12:07:12.098Z,56.92
2019-01-23T12:11:17.173Z,57.90
2019-01-23T12:15:24.418Z,55.60
2019-01-23T12:19:29.588Z,51.45
2019-01-23T12:23:34.657Z,49.58
2019-01-23T12:27:39.765Z,49.67
2019-01-23T12:31:44.838Z,48.50
2019-01-23T12:35:50.016Z,49.20
2019-01-23T12:39:56.117Z,52.30
2019-01-23T12:44:01.196Z,53.35
2019-01-23T12:48:06.478Z,51.80
2019-01-23T12:52:11.574Z,50.20
2019-01-23T12:56:16.861Z,50.90
2019-01-23T13:00:24.412Z,52.10
2019-01-23T13:04:29.470Z,48.83
2019-01-23T13:08:34.751Z,49.53
2019-01-23T13:12:39.841Z,47.70
2019-01-23T13:16:45.033Z,48.23
2019-01-23T13:20:50.125Z,51.23
2019-01-23T13:24:55.217Z,48.10
2019-01-23T13:29:00.494Z,47.20
2019-01-23T13:33:05.577Z,45.85
2019-01-23T13:37:10.829Z,45.55
2019-01-23T13:41:15.899Z,45.52
2019-01-23T13:45:21.035Z,45.38
2019-01-23T13:49:26.111Z,43.48
2019-01-23T13:53:31.409Z,41.35
2019-01-23T13:57:36.862Z,39.23
2019-01-23T14:01:42.066Z,37.42
2019-01-23T14:05:47.218Z,40.52
2019-01-23T14:09:52.491Z,37.85
2019-01-23T14:13:57.878Z,39.92
2019-01-23T14:18:02.962Z,36.00
2019-01-23T14:22:08.145Z,36.03
2019-01-23T14:26:13.312Z,36.35
2019-01-23T14:30:24.377Z,33.83
2019-01-23T14:34:29.799Z,33.98
2019-01-23T14:38:36.105Z,31.75
2019-01-23T14:42:41.306Z,35.90
2019-01-23T14:46:46.660Z,36.88
2019-01-23T14:50:51.944Z,34.23
2019-01-23T14:54:57.299Z,34.50
2019-01-23T14:59:02.344Z,33.75
2019-01-23T15:03:07.538Z,31.68
2019-01-23T15:07:12.755Z,32.65
2019-01-23T15:11:18.181Z,30.80
2019-01-23T15:15:23.274Z,31.60
2019-01-23T15:19:29.091Z,30.55
2019-01-23T15:23:34.547Z,30.20
2019-01-23T15:27:39.901Z,29.95
2019-01-23T15:31:45.447Z,29.67
2019-01-23T15:35:52.171Z,26.90
2019-01-23T15:39:58.412Z,28.07
2019-01-23T15:44:03.854Z,27.93
2019-01-23T15:48:10.847Z,27.93
2019-01-23T15:52:16.299Z,28.20
2019-01-23T15:56:22.320Z,29.52
2019-01-23T16:00:30.392Z,28.30
2019-01-23T16:04:35.876Z,29.60
2019-01-23T16:08:41.396Z,29.37
2019-01-23T16:12:48.133Z,28.47
2019-01-23T16:16:53.519Z,29.32
2019-01-23T16:21:00.126Z,28.35
2019-01-23T16:25:08.168Z,25.77
2019-01-23T16:29:13.910Z,28.02
2019-01-23T16:33:20.965Z,29.65
2019-01-23T16:37:26.724Z,29.27
2019-01-23T16:41:32.218Z,27.15
2019-01-23T16:45:41.110Z,29.12
2019-01-23T16:49:48.221Z,28.30
2019-01-23T16:53:55.805Z,29.00
2019-01-23T16:58:01.607Z,27.55
2019-01-23T17:02:07.225Z,29.37
2019-01-23T17:06:12.780Z,29.57
2019-01-23T17:10:21.782Z,29.37
2019-01-23T17:14:27.281Z,27.48
2019-01-23T17:18:33.032Z,29.45
2019-01-23T17:22:38.621Z,29.57
2019-01-23T17:26:45.672Z,28.10
2019-01-23T17:30:52.662Z,26.40
2019-01-23T17:34:59.324Z,28.67
2019-01-23T17:39:08.090Z,29.77
2019-01-23T17:43:14.653Z,34.70
2019-01-23T17:47:21.889Z,28.27
2019-01-23T17:51:28.567Z,30.00
2019-01-23T17:55:36.305Z,31.25
2019-01-23T17:59:44.248Z,30.77
2019-01-23T18:03:50.769Z,32.83
2019-01-23T18:07:56.384Z,30.27
2019-01-23T18:12:01.885Z,32.80
2019-01-23T18:16:07.426Z,30.12
2019-01-23T18:20:16.140Z,30.75
2019-01-23T18:24:22.737Z,31.10
2019-01-23T18:28:28.353Z,31.93
2019-01-23T18:32:34.007Z,30.90
2019-01-23T18:36:48.091Z,27.00
2019-01-23T18:41:19.427Z,32.55
2019-01-23T18:45:28.338Z,31.95
2019-01-23T18:49:42.979Z,30.00
2019-01-23T18:53:49.199Z,32.23
2019-01-23T18:57:54.654Z,32.53
2019-01-23T19:02:00.720Z,36.17
2019-01-23T19:06:08.735Z,34.35
2019-01-23T19:10:18.828Z,30.17
2019-01-23T19:14:24.733Z,30.72
2019-01-23T19:18:31.728Z,31.77
2019-01-23T19:22:39.575Z,32.73
2019-01-23T19:26:45.124Z,31.82
2019-01-23T19:30:50.663Z,32.42
2019-01-23T19:34:56.427Z,33.98
2019-01-23T19:39:02.284Z,31.62
2019-01-23T19:43:07.856Z,32.42
2019-01-23T19:47:13.499Z,34.80
2019-01-23T19:51:21.224Z,34.58
2019-01-23T19:55:29.116Z,30.32
2019-01-23T19:59:34.569Z,33.63
2019-01-23T20:03:41.983Z,31.48
2019-01-23T20:07:48.897Z,32.58
2019-01-23T20:11:54.510Z,32.67
2019-01-23T20:16:00.170Z,32.05
2019-01-23T20:20:09.202Z,31.42
2019-01-23T20:24:14.963Z,31.45
2019-01-23T20:28:20.417Z,31.77
2019-01-23T20:32:25.973Z,31.65
2019-01-23T20:36:31.511Z,30.17
2019-01-23T20:40:37.288Z,31.62
2019-01-23T20:44:42.843Z,31.57
2019-01-23T20:48:48.600Z,30.75
2019-01-23T20:52:54.156Z,30.77
2019-01-23T20:57:00.018Z,34.23
2019-01-23T21:01:06.293Z,32.17
2019-01-23T21:05:12.768Z,32.33
2019-01-23T21:09:20.785Z,30.40
2019-01-23T21:13:28.076Z,31.95
2019-01-23T21:17:35.235Z,32.00
2019-01-23T21:21:43.264Z,32.03
2019-01-23T21:25:49.248Z,30.68
2019-01-23T21:29:54.804Z,31.15
2019-01-23T21:34:00.206Z,32.20
2019-01-23T21:38:05.915Z,32.65
2019-01-23T21:42:11.365Z,28.32
2019-01-23T21:46:17.039Z,30.35
2019-01-23T21:50:25.973Z,31.17
2019-01-23T21:54:31.551Z,32.55
2019-01-23T21:58:36.968Z,31.42
2019-01-23T22:02:42.424Z,32.25
2019-01-23T22:06:47.871Z,32.15
2019-01-23T22:10:53.326Z,29.85
2019-01-23T22:14:58.778Z,30.35
2019-01-23T22:19:04.130Z,30.82
2019-01-23T22:23:09.219Z,31.35
2019-01-23T22:27:14.380Z,29.70
2019-01-23T22:31:19.629Z,29.35
2019-01-23T22:35:24.915Z,29.40
2019-01-23T22:39:30.035Z,29.30
2019-01-23T22:43:35.250Z,28.40
2019-01-23T22:47:40.416Z,28.80
2019-01-23T22:51:46.549Z,27.52
2019-01-23T22:55:51.679Z,28.38
2019-01-23T22:59:56.748Z,27.10
2019-01-23T23:04:03.402Z,24.98
2019-01-23T23:08:08.747Z,28.15
2019-01-23T23:12:13.836Z,27.98
2019-01-23T23:16:18.915Z,28.87
2019-01-23T23:20:25.452Z,27.32
2019-01-23T23:24:30.529Z,28.45
2019-01-23T23:28:35.627Z,27.80
2019-01-23T23:32:40.744Z,26.65
2019-01-23T23:36:45.818Z,25.82
2019-01-23T23:40:50.929Z,27.90
2019-01-23T23:44:55.994Z,26.68
2019-01-23T23:49:01.106Z,28.40
2019-01-23T23:53:06.324Z,28.12
2019-01-23T23:57:11.401Z,27.98
